< < Back
Terminal Aerodrome Forecast


Current Version              Previous Versions:   1  2  3  4  5  6  7  8  9  

Terminal Aerodrome Forecast

194
FTUS42 KGSP 212300
TAFHKY
TAF
KHKY 212325Z 2200/2224 24005KT P6SM BKN250
     FM220900 33005KT P6SM SCT250
     FM221400 02008G14KT P6SM SKC
     FM222300 03003KT P6SM FEW240=

Latest METAR

791
SAUS70 KWBC 221000 RRS
MTRHKY
METAR KHKY 220953Z AUTO 00000KT 10SM CLR 15/10 A3001 RMK AO2 SLP142
T01500100


USA.gov is the U.S. government's official web portal to all federal, state and local government web resources and services.